createdAt,value
2019-04-22T00:01:28.639Z,100288.00
2019-04-22T00:04:01.307Z,100287.00
2019-04-22T00:06:50.028Z,100287.00
2019-04-22T00:09:24.152Z,100284.00
2019-04-22T00:11:52.873Z,100286.00
2019-04-22T00:14:19.146Z,100279.00
2019-04-22T00:16:58.509Z,100273.00
2019-04-22T00:19:30.376Z,100281.00
2019-04-22T00:22:03.320Z,100269.00
2019-04-22T00:24:27.310Z,100268.00
2019-04-22T00:26:59.477Z,100266.00
2019-04-22T00:29:42.394Z,100271.00
2019-04-22T00:32:22.629Z,100267.00
2019-04-22T00:34:53.547Z,100262.00
2019-04-22T00:37:28.525Z,100261.00
2019-04-22T00:40:16.535Z,100265.00
2019-04-22T00:42:28.802Z,100252.00
2019-04-22T00:45:01.962Z,100250.00
2019-04-22T00:50:15.848Z,100251.00
2019-04-22T00:52:32.468Z,100255.00
2019-04-22T00:55:10.248Z,100254.00
2019-04-22T00:57:28.182Z,100249.00
2019-04-22T01:00:01.461Z,100250.00
2019-04-22T01:02:34.665Z,100251.00
2019-04-22T01:05:05.500Z,100243.00
2019-04-22T01:07:30.562Z,100238.00
2019-04-22T01:12:34.638Z,100244.00
2019-04-22T01:15:00.395Z,100233.00
2019-04-22T01:17:34.336Z,100236.00
2019-04-22T01:22:30.020Z,100234.00
2019-04-22T01:24:56.380Z,100226.00
2019-04-22T01:27:20.504Z,100230.00
2019-04-22T01:29:48.985Z,100226.00
2019-04-22T01:32:17.570Z,100229.00
2019-04-22T01:34:55.260Z,100222.00
2019-04-22T01:37:28.807Z,100228.00
2019-04-22T01:40:06.077Z,100218.00
2019-04-22T01:42:35.816Z,100222.00
2019-04-22T01:45:05.635Z,100212.00
2019-04-22T01:47:36.702Z,100211.00
2019-04-22T01:50:10.078Z,100223.00
2019-04-22T01:52:41.575Z,100217.00
2019-04-22T01:57:37.613Z,100207.00
2019-04-22T01:59:58.753Z,100209.00
2019-04-22T02:02:35.393Z,100210.00
2019-04-22T02:05:10.630Z,100204.00
2019-04-22T02:07:37.099Z,100190.00
2019-04-22T02:10:02.362Z,100202.00
2019-04-22T02:12:36.857Z,100195.00
2019-04-22T02:15:19.684Z,100196.00
2019-04-22T02:17:53.459Z,100192.00
2019-04-22T02:20:20.637Z,100192.00
2019-04-22T02:23:43.940Z,100191.00
2019-04-22T02:26:04.118Z,100187.00
2019-04-22T02:36:18.730Z,100190.00
2019-04-22T02:38:55.433Z,100176.00
2019-04-22T02:41:16.063Z,100190.00
2019-04-22T02:43:46.501Z,100188.00
2019-04-22T02:54:02.585Z,100170.00
2019-04-22T02:56:21.891Z,100171.00
2019-04-22T03:01:08.782Z,100167.00
2019-04-22T03:03:41.800Z,100162.00
2019-04-22T03:06:15.445Z,100164.00
2019-04-22T03:08:39.676Z,100159.00
2019-04-22T03:11:07.622Z,100164.00
2019-04-22T03:13:40.679Z,100150.00
2019-04-22T03:16:08.333Z,100147.00
2019-04-22T03:18:39.924Z,100143.00
2019-04-22T03:26:11.950Z,100129.00
2019-04-22T03:28:37.171Z,100130.00
2019-04-22T03:39:38.047Z,100124.00
2019-04-22T03:44:32.073Z,100120.00
2019-04-22T03:49:48.014Z,100120.00
2019-04-22T03:52:05.393Z,100114.00
2019-04-22T03:59:39.123Z,100107.00
2019-04-22T04:07:20.518Z,100107.00
2019-04-22T04:09:39.083Z,100100.00
2019-04-22T04:11:59.977Z,100103.00
2019-04-22T04:14:38.117Z,100108.00
2019-04-22T04:17:09.453Z,100130.00
2019-04-22T04:21:57.803Z,100106.00
2019-04-22T04:24:53.583Z,100100.00
2019-04-22T04:27:07.454Z,100099.00
2019-04-22T04:32:09.855Z,100092.00
2019-04-22T04:34:43.748Z,100101.00
2019-04-22T04:37:07.436Z,100097.00
2019-04-22T04:39:36.440Z,100094.00
2019-04-22T04:42:23.457Z,100093.00
2019-04-22T04:45:08.140Z,100098.00
2019-04-22T04:49:54.677Z,100102.00
2019-04-22T04:52:39.713Z,100097.00
2019-04-22T04:54:48.680Z,100097.00
2019-04-22T04:57:14.592Z,100096.00
2019-04-22T05:00:11.152Z,100097.00
2019-04-22T05:04:56.178Z,100094.00
2019-04-22T05:07:19.593Z,100094.00
2019-04-22T05:09:36.014Z,100092.00
2019-04-22T05:14:36.909Z,100092.00
2019-04-22T05:17:16.471Z,100089.00
2019-04-22T05:22:07.859Z,100086.00
2019-04-22T05:24:35.050Z,100082.00
2019-04-22T05:27:15.108Z,100095.00
2019-04-22T05:29:46.498Z,100086.00
2019-04-22T05:32:01.521Z,100094.00
2019-04-22T05:34:35.538Z,100091.00
2019-04-22T05:37:07.354Z,100085.00
2019-04-22T05:39:38.079Z,100087.00
2019-04-22T05:42:10.425Z,100103.00
2019-04-22T05:44:38.981Z,100082.00
2019-04-22T05:47:02.636Z,100078.00
2019-04-22T05:49:31.283Z,100084.00
2019-04-22T05:52:05.248Z,100077.00
2019-04-22T05:54:35.071Z,100077.00
2019-04-22T05:57:03.954Z,100074.00
2019-04-22T05:59:44.547Z,100069.00
2019-04-22T06:02:05.149Z,100067.00
2019-04-22T06:04:29.468Z,100066.00
2019-04-22T06:07:00.465Z,100066.00
2019-04-22T06:09:36.733Z,100065.00
2019-04-22T06:11:59.178Z,100061.00
2019-04-22T06:14:37.065Z,100068.00
2019-04-22T06:17:11.067Z,100076.00
2019-04-22T06:19:37.995Z,100068.00
2019-04-22T06:22:15.515Z,100060.00
2019-04-22T06:24:43.679Z,100068.00
2019-04-22T06:27:14.737Z,100069.00
2019-04-22T06:29:36.565Z,100066.00
2019-04-22T06:34:42.241Z,100062.00
2019-04-22T06:37:14.390Z,100068.00
2019-04-22T06:39:34.189Z,100074.00
2019-04-22T06:44:45.717Z,100059.00
2019-04-22T06:47:40.010Z,100060.00
2019-04-22T06:52:14.184Z,100062.00
2019-04-22T06:54:43.574Z,100063.00
2019-04-22T06:57:08.806Z,100055.00
2019-04-22T06:59:39.429Z,100049.00
2019-04-22T07:02:12.359Z,100053.00
2019-04-22T07:04:43.034Z,100053.00
2019-04-22T07:07:08.395Z,100056.00
2019-04-22T07:09:41.444Z,100044.00
2019-04-22T07:12:12.092Z,100043.00
2019-04-22T07:14:37.363Z,100047.00
2019-04-22T07:17:07.077Z,100041.00
2019-04-22T07:19:40.871Z,100033.00
2019-04-22T07:22:13.489Z,100037.00
2019-04-22T07:27:12.889Z,100030.00
2019-04-22T07:29:38.935Z,100039.00
2019-04-22T07:32:07.205Z,100027.00
2019-04-22T07:34:42.644Z,100020.00
2019-04-22T07:37:19.719Z,100024.00
2019-04-22T07:39:44.010Z,100021.00
2019-04-22T07:42:15.095Z,100015.00
2019-04-22T07:44:48.098Z,100020.00
2019-04-22T07:49:47.282Z,100005.00
2019-04-22T07:52:09.899Z,100002.00
2019-04-22T07:54:41.397Z,100003.00
2019-04-22T07:59:40.405Z,100002.00
2019-04-22T08:02:15.828Z,99999.00
2019-04-22T08:04:54.285Z,99995.00
2019-04-22T08:07:14.670Z,99994.00
2019-04-22T08:09:47.212Z,99996.00
2019-04-22T08:12:12.099Z,100006.00
2019-04-22T08:14:40.898Z,99991.00
2019-04-22T08:17:38.869Z,99991.00
2019-04-22T08:19:41.936Z,99984.00
2019-04-22T08:22:12.494Z,99989.00
2019-04-22T08:24:51.255Z,99980.00
2019-04-22T08:27:11.850Z,99979.00
2019-04-22T08:29:52.249Z,99980.00
2019-04-22T08:32:15.139Z,99969.00
2019-04-22T08:34:44.793Z,99970.00
2019-04-22T08:37:41.633Z,99966.00
2019-04-22T08:39:40.569Z,99964.00
2019-04-22T08:42:17.925Z,99959.00
2019-04-22T08:44:56.761Z,99963.00
2019-04-22T08:47:21.456Z,99963.00
2019-04-22T08:49:50.209Z,99960.00
2019-04-22T08:52:19.444Z,99953.00
2019-04-22T08:54:44.546Z,99944.00
2019-04-22T08:57:18.434Z,99951.00
2019-04-22T08:59:43.215Z,99942.00
2019-04-22T09:02:20.588Z,99934.00
2019-04-22T09:04:45.049Z,99933.00
2019-04-22T09:09:44.477Z,99919.00
2019-04-22T09:12:20.042Z,99920.00
2019-04-22T09:14:45.726Z,99918.00
2019-04-22T09:17:17.435Z,99909.00
2019-04-22T09:19:42.496Z,99907.00
2019-04-22T09:27:24.675Z,99889.00
2019-04-22T09:29:44.456Z,99886.00
2019-04-22T09:34:47.042Z,99897.00
2019-04-22T09:37:21.026Z,99883.00
2019-04-22T09:39:50.817Z,99877.00
2019-04-22T09:42:22.009Z,99871.00
2019-04-22T09:44:47.858Z,99867.00
2019-04-22T09:47:19.410Z,99864.00
2019-04-22T09:52:16.115Z,99857.00
2019-04-22T09:54:57.876Z,99853.00
2019-04-22T09:57:21.118Z,99852.00
2019-04-22T09:59:52.615Z,99835.00
2019-04-22T10:04:55.472Z,99833.00
2019-04-22T10:07:20.914Z,99832.00
2019-04-22T10:12:29.815Z,99830.00
2019-04-22T10:17:23.788Z,99807.00
2019-04-22T10:19:53.789Z,99800.00
2019-04-22T10:22:27.531Z,99792.00
2019-04-22T10:24:52.025Z,99787.00
2019-04-22T10:27:21.055Z,99785.00
2019-04-22T10:30:04.373Z,99785.00
2019-04-22T10:32:17.570Z,99775.00
2019-04-22T10:34:44.474Z,99775.00
2019-04-22T10:37:11.818Z,99771.00
2019-04-22T10:39:50.590Z,99765.00
2019-04-22T10:42:11.410Z,99761.00
2019-04-22T10:44:39.818Z,99754.00
2019-04-22T10:47:08.011Z,99756.00
2019-04-22T10:49:36.347Z,99751.00
2019-04-22T10:52:04.836Z,99755.00
2019-04-22T10:54:33.691Z,99740.00
2019-04-22T10:57:03.239Z,99743.00
2019-04-22T10:59:32.306Z,99749.00
2019-04-22T11:02:01.754Z,99732.00
2019-04-22T11:04:30.220Z,99726.00
2019-04-22T11:07:03.842Z,99722.00
2019-04-22T11:09:29.052Z,99726.00
2019-04-22T11:12:04.418Z,99714.00
2019-04-22T11:14:28.678Z,99663.00
2019-04-22T11:16:58.842Z,99714.00
2019-04-22T11:19:27.738Z,99700.00
2019-04-22T11:22:03.751Z,99695.00
2019-04-22T11:24:26.681Z,99698.00
2019-04-22T11:26:57.031Z,99696.00
2019-04-22T11:29:25.589Z,99688.00
2019-04-22T11:31:54.706Z,99685.00
2019-04-22T11:34:24.915Z,99685.00
2019-04-22T11:36:56.823Z,99677.00
2019-04-22T11:39:26.018Z,99671.00
2019-04-22T11:41:55.987Z,99667.00
2019-04-22T11:44:25.404Z,99669.00
2019-04-22T11:46:54.039Z,99668.00
2019-04-22T11:49:22.067Z,99656.00
2019-04-22T11:51:50.066Z,99648.00
2019-04-22T11:54:18.920Z,99641.00
2019-04-22T11:56:47.302Z,99620.00
2019-04-22T11:59:15.874Z,99645.00
2019-04-22T12:01:46.835Z,99641.00
2019-04-22T12:04:16.030Z,99636.00
2019-04-22T12:06:45.847Z,99633.00
2019-04-22T12:09:17.575Z,99635.00
2019-04-22T12:11:46.886Z,99634.00
2019-04-22T12:14:15.928Z,99635.00
2019-04-22T12:16:45.440Z,99629.00
2019-04-22T12:19:15.688Z,99623.00
2019-04-22T12:21:44.767Z,99609.00
2019-04-22T12:24:13.268Z,99607.00
2019-04-22T12:26:42.377Z,99611.00
2019-04-22T12:29:11.074Z,99613.00
2019-04-22T12:31:39.886Z,99604.00
2019-04-22T12:34:08.103Z,99606.00
2019-04-22T12:36:36.375Z,99597.00
2019-04-22T12:39:07.686Z,99580.00
2019-04-22T12:41:38.245Z,99573.00
2019-04-22T12:44:07.510Z,99570.00
2019-04-22T12:46:38.418Z,99574.00
2019-04-22T12:49:07.874Z,99555.00
2019-04-22T12:51:36.749Z,99563.00
2019-04-22T12:54:05.060Z,99561.00
2019-04-22T12:56:35.433Z,99569.00
2019-04-22T12:59:05.573Z,99551.00
2019-04-22T13:01:35.109Z,99550.00
2019-04-22T13:04:08.972Z,99568.00
2019-04-22T13:06:33.423Z,99555.00
2019-04-22T13:09:02.189Z,99545.00
2019-04-22T13:11:36.111Z,99544.00
2019-04-22T13:14:03.054Z,99536.00
2019-04-22T13:16:33.160Z,99538.00
2019-04-22T13:19:06.928Z,99531.00
2019-04-22T13:21:33.089Z,99527.00
2019-04-22T13:24:02.524Z,99512.00
2019-04-22T13:26:31.999Z,99513.00
2019-04-22T13:29:01.055Z,99520.00
2019-04-22T13:31:29.158Z,99517.00
2019-04-22T13:34:00.191Z,99508.00
2019-04-22T13:36:29.607Z,99507.00
2019-04-22T13:38:58.745Z,99500.00
2019-04-22T13:43:58.211Z,99493.00
2019-04-22T13:46:31.252Z,99498.00
2019-04-22T13:49:27.044Z,99503.00
2019-04-22T13:54:12.669Z,99493.00
2019-04-22T13:56:49.165Z,99483.00
2019-04-22T13:59:09.155Z,99488.00
2019-04-22T14:01:46.414Z,99468.00
2019-04-22T14:04:28.539Z,99480.00
2019-04-22T14:06:58.749Z,99470.00
2019-04-22T14:09:28.326Z,99480.00
2019-04-22T14:12:05.214Z,99471.00
2019-04-22T14:14:30.199Z,99458.00
2019-04-22T14:16:58.854Z,99465.00
2019-04-22T14:19:27.849Z,99449.00
2019-04-22T14:21:55.979Z,99447.00
2019-04-22T14:24:24.008Z,99450.00
2019-04-22T14:27:10.047Z,99436.00
2019-04-22T14:29:22.175Z,99437.00
2019-04-22T14:32:04.221Z,99429.00
2019-04-22T14:34:20.774Z,99429.00
2019-04-22T14:36:51.105Z,99432.00
2019-04-22T14:39:19.844Z,99433.00
2019-04-22T14:42:10.918Z,99423.00
2019-04-22T14:47:15.661Z,99420.00
2019-04-22T14:49:42.143Z,99403.00
2019-04-22T14:52:13.197Z,99415.00
2019-04-22T14:54:34.074Z,99414.00
2019-04-22T14:56:48.512Z,99407.00
2019-04-22T14:59:16.836Z,99392.00
2019-04-22T15:01:45.643Z,99391.00
2019-04-22T15:04:15.114Z,99390.00
2019-04-22T15:06:46.377Z,99403.00
2019-04-22T15:09:14.410Z,99385.00
2019-04-22T15:11:55.786Z,99391.00
2019-04-22T15:14:17.271Z,99389.00
2019-04-22T15:17:11.134Z,99378.00
2019-04-22T15:19:45.459Z,99378.00
2019-04-22T15:22:14.577Z,99377.00
2019-04-22T15:24:45.046Z,99361.00
2019-04-22T15:27:14.154Z,99370.00
2019-04-22T15:29:43.218Z,99365.00
2019-04-22T15:32:11.766Z,99360.00
2019-04-22T15:34:41.454Z,99364.00
2019-04-22T15:37:09.723Z,99363.00
2019-04-22T15:39:39.435Z,99367.00
2019-04-22T15:42:14.476Z,99365.00
2019-04-22T15:44:37.911Z,99358.00
2019-04-22T15:47:08.996Z,99356.00
2019-04-22T15:49:38.139Z,99347.00
2019-04-22T15:52:08.114Z,99344.00
2019-04-22T15:54:37.511Z,99350.00
2019-04-22T15:57:06.674Z,99350.00
2019-04-22T15:59:50.517Z,99350.00
2019-04-22T16:02:06.641Z,99339.00
2019-04-22T16:04:34.838Z,99333.00
2019-04-22T16:07:03.366Z,99334.00
2019-04-22T16:09:31.509Z,99331.00
2019-04-22T16:12:11.588Z,99314.00
2019-04-22T16:14:39.619Z,99327.00
2019-04-22T16:17:02.573Z,99318.00
2019-04-22T16:19:32.929Z,99325.00
2019-04-22T16:22:06.927Z,99315.00
2019-04-22T16:24:50.219Z,99317.00
2019-04-22T16:27:22.699Z,99319.00
2019-04-22T16:29:51.594Z,99314.00
2019-04-22T16:32:21.183Z,99305.00
2019-04-22T16:34:49.933Z,99304.00
2019-04-22T16:37:19.043Z,99299.00
2019-04-22T16:39:50.278Z,99307.00
2019-04-22T16:42:27.769Z,99305.00
2019-04-22T16:44:49.310Z,99299.00
2019-04-22T16:47:19.565Z,99310.00
2019-04-22T16:49:47.907Z,99289.00
2019-04-22T16:52:16.244Z,99287.00
2019-04-22T16:54:46.375Z,99290.00
2019-04-22T16:57:15.811Z,99294.00
2019-04-22T16:59:44.817Z,99291.00
2019-04-22T17:02:32.895Z,99293.00
2019-04-22T17:05:13.855Z,99289.00
2019-04-22T17:07:42.459Z,99289.00
2019-04-22T17:10:13.737Z,99289.00
2019-04-22T17:12:50.793Z,99289.00
2019-04-22T17:15:16.031Z,99289.00
2019-04-22T17:17:43.398Z,99275.00
2019-04-22T17:20:13.324Z,99281.00
2019-04-22T17:22:41.883Z,99276.00
2019-04-22T17:25:10.132Z,99272.00
2019-04-22T17:27:39.270Z,99272.00
2019-04-22T17:30:08.547Z,99273.00
2019-04-22T17:32:37.767Z,99281.00
2019-04-22T17:35:08.348Z,99273.00
2019-04-22T17:37:39.646Z,99281.00
2019-04-22T17:40:24.346Z,99274.00
2019-04-22T17:42:57.827Z,99270.00
2019-04-22T17:45:47.793Z,99263.00
2019-04-22T17:48:35.415Z,99273.00
2019-04-22T17:51:10.518Z,99275.00
2019-04-22T17:53:41.699Z,99279.00
2019-04-22T17:56:08.618Z,99282.00
2019-04-22T17:58:38.528Z,99275.00
2019-04-22T18:01:11.905Z,99280.00
2019-04-22T18:03:25.795Z,99288.00
2019-04-22T18:05:55.468Z,99288.00
2019-04-22T18:08:40.749Z,99286.00
2019-04-22T18:11:21.756Z,99289.00
2019-04-22T18:13:39.225Z,99295.00
2019-04-22T18:16:09.858Z,99297.00
2019-04-22T18:18:41.708Z,99293.00
2019-04-22T18:21:06.336Z,99311.00
2019-04-22T18:23:24.862Z,99304.00
2019-04-22T18:26:09.831Z,99307.00
2019-04-22T18:28:46.435Z,99312.00
2019-04-22T18:31:06.674Z,99311.00
2019-04-22T18:33:36.988Z,99318.00
2019-04-22T18:36:12.608Z,99316.00
2019-04-22T18:38:46.016Z,99315.00
2019-04-22T18:41:05.078Z,99326.00
2019-04-22T18:43:42.461Z,99313.00
2019-04-22T18:46:15.678Z,99319.00
2019-04-22T18:48:37.661Z,99335.00
2019-04-22T18:51:27.697Z,99321.00
2019-04-22T18:54:02.882Z,99328.00
2019-04-22T18:56:34.289Z,99328.00
2019-04-22T18:58:53.764Z,99331.00
2019-04-22T19:01:17.644Z,99338.00
2019-04-22T19:03:56.174Z,99345.00
2019-04-22T19:06:46.114Z,99342.00
2019-04-22T19:09:11.949Z,99336.00
2019-04-22T19:11:46.234Z,99348.00
2019-04-22T19:14:10.898Z,99348.00
2019-04-22T19:16:39.813Z,99355.00
2019-04-22T19:19:24.535Z,99353.00
2019-04-22T19:21:38.019Z,99350.00
2019-04-22T19:24:05.982Z,99355.00
2019-04-22T19:26:50.532Z,99346.00
2019-04-22T19:29:06.912Z,99351.00
2019-04-22T19:31:41.026Z,99349.00
2019-04-22T19:34:14.724Z,99357.00
2019-04-22T19:36:43.637Z,99350.00
2019-04-22T19:39:10.498Z,99352.00
2019-04-22T19:41:44.180Z,99346.00
2019-04-22T19:44:17.679Z,99349.00
2019-04-22T19:46:42.449Z,99360.00
2019-04-22T19:49:22.098Z,99356.00
2019-04-22T19:51:53.917Z,99349.00
2019-04-22T19:54:13.949Z,99355.00
2019-04-22T19:56:38.769Z,99359.00
2019-04-22T19:59:14.997Z,99360.00
2019-04-22T20:02:10.945Z,99357.00
2019-04-22T20:05:25.885Z,99344.00
2019-04-22T20:07:41.643Z,99356.00
2019-04-22T20:10:20.706Z,99348.00
2019-04-22T20:12:50.051Z,99345.00
2019-04-22T20:15:20.012Z,99350.00
2019-04-22T20:18:20.848Z,99346.00
2019-04-22T20:20:29.243Z,99353.00
2019-04-22T20:22:52.455Z,99347.00
2019-04-22T20:25:14.608Z,99345.00
2019-04-22T20:28:00.040Z,99345.00
2019-04-22T20:30:29.552Z,99344.00
2019-04-22T20:32:56.268Z,99341.00
2019-04-22T20:35:32.983Z,99339.00
2019-04-22T20:37:56.781Z,99343.00
2019-04-22T20:40:32.006Z,99337.00
2019-04-22T20:43:26.819Z,99332.00
2019-04-22T20:45:36.358Z,99337.00
2019-04-22T20:47:54.943Z,99340.00
2019-04-22T20:50:35.879Z,99344.00
2019-04-22T20:53:07.155Z,99329.00
2019-04-22T20:55:29.607Z,99342.00
2019-04-22T20:58:05.143Z,99347.00
2019-04-22T21:00:30.926Z,99348.00
2019-04-22T21:02:58.919Z,99355.00
2019-04-22T21:05:31.425Z,99379.00
2019-04-22T21:08:11.321Z,99362.00
2019-04-22T21:10:31.421Z,99363.00
2019-04-22T21:13:00.199Z,99360.00
2019-04-22T21:15:46.877Z,99363.00
2019-04-22T21:18:05.521Z,99356.00
2019-04-22T21:20:43.143Z,99356.00
2019-04-22T21:23:13.956Z,99370.00
2019-04-22T21:25:34.721Z,99368.00
2019-04-22T21:28:16.091Z,99362.00
2019-04-22T21:30:45.704Z,99369.00
2019-04-22T21:33:10.565Z,99359.00
2019-04-22T21:38:15.172Z,99355.00
2019-04-22T21:40:44.151Z,99354.00
2019-04-22T21:43:18.461Z,99361.00
2019-04-22T21:45:43.684Z,99358.00
2019-04-22T21:48:26.299Z,99361.00
2019-04-22T21:53:22.763Z,99342.00
2019-04-22T21:55:50.756Z,99345.00
2019-04-22T21:58:27.759Z,99338.00
2019-04-22T22:01:15.122Z,99331.00
2019-04-22T22:03:44.293Z,99336.00
2019-04-22T22:06:05.991Z,99329.00
2019-04-22T22:08:49.015Z,99328.00
2019-04-22T22:11:14.206Z,99326.00
2019-04-22T22:13:45.592Z,99326.00
2019-04-22T22:16:10.070Z,99326.00
2019-04-22T22:18:35.496Z,99326.00
2019-04-22T22:21:33.421Z,99319.00
2019-04-22T22:23:43.708Z,99315.00
2019-04-22T22:26:09.392Z,99311.00
2019-04-22T22:31:26.616Z,99304.00
2019-04-22T22:33:49.856Z,99310.00
2019-04-22T22:36:12.005Z,99313.00
2019-04-22T22:38:43.734Z,99299.00
2019-04-22T22:40:56.068Z,99314.00
2019-04-22T22:43:32.011Z,99300.00
2019-04-22T22:46:09.511Z,99308.00
2019-04-22T22:48:49.742Z,99304.00
2019-04-22T22:51:23.194Z,99299.00
2019-04-22T22:53:47.955Z,99296.00
2019-04-22T22:56:17.086Z,99294.00
2019-04-22T22:58:45.356Z,99299.00
2019-04-22T23:01:09.874Z,99298.00
2019-04-22T23:03:51.038Z,99295.00
2019-04-22T23:06:22.703Z,99290.00
2019-04-22T23:08:53.836Z,99292.00
2019-04-22T23:11:34.084Z,99284.00
2019-04-22T23:13:54.220Z,99284.00
2019-04-22T23:16:12.726Z,99285.00
2019-04-22T23:18:31.931Z,99291.00
2019-04-22T23:21:01.391Z,99287.00
2019-04-22T23:23:51.314Z,99281.00
2019-04-22T23:26:51.974Z,99267.00
2019-04-22T23:29:10.436Z,99264.00
2019-04-22T23:31:46.892Z,99259.00
2019-04-22T23:34:22.363Z,99261.00
2019-04-22T23:37:10.369Z,99250.00
2019-04-22T23:39:58.438Z,99256.00
2019-04-22T23:42:21.920Z,99247.00
2019-04-22T23:44:56.278Z,99248.00
2019-04-22T23:47:23.840Z,99237.00
2019-04-22T23:49:56.120Z,99243.00
2019-04-22T23:52:28.996Z,99237.00
2019-04-22T23:55:03.249Z,99244.00
2019-04-22T23:57:35.424Z,99232.00
